Map

Track Data

SID SEASON NUMBER BASIN SUBBASIN NAME ISO_TIME NATURE LAT LON WMO_WIND WMO_PRES WMO_AGENCY TRACK_TYPE DIST2LAND LANDFALL IFLAG USA_AGENCY USA_ATCF_ID USA_LAT USA_LON USA_RECORD USA_STATUS USA_WIND USA_PRES USA_SSHS USA_R34_NE USA_R34_SE USA_R34_SW USA_R34_NW USA_R50_NE USA_R50_SE USA_R50_SW USA_R50_NW USA_R64_NE USA_R64_SE USA_R64_SW USA_R64_NW USA_POCI USA_ROCI USA_RMW USA_EYE TOKYO_LAT TOKYO_LON TOKYO_GRADE TOKYO_WIND TOKYO_PRES TOKYO_R50_DIR TOKYO_R50_LONG TOKYO_R50_SHORT TOKYO_R30_DIR TOKYO_R30_LONG TOKYO_R30_SHORT TOKYO_LAND CMA_LAT CMA_LON CMA_CAT CMA_WIND CMA_PRES HKO_LAT HKO_LON HKO_CAT HKO_WIND HKO_PRES NEWDELHI_LAT NEWDELHI_LON NEWDELHI_GRADE NEWDELHI_WIND NEWDELHI_PRES NEWDELHI_CI NEWDELHI_DP NEWDELHI_POCI REUNION_LAT REUNION_LON REUNION_TYPE REUNION_WIND REUNION_PRES REUNION_TNUM REUNION_CI REUNION_RMW REUNION_R34_NE REUNION_R34_SE REUNION_R34_SW REUNION_R34_NW REUNION_R50_NE REUNION_R50_SE REUNION_R50_SW REUNION_R50_NW REUNION_R64_NE REUNION_R64_SE REUNION_R64_SW REUNION_R64_NW BOM_LAT BOM_LON BOM_TYPE BOM_WIND BOM_PRES BOM_TNUM BOM_CI BOM_RMW BOM_R34_NE BOM_R34_SE BOM_R34_SW BOM_R34_NW BOM_R50_NE BOM_R50_SE BOM_R50_SW BOM_R50_NW BOM_R64_NE BOM_R64_SE BOM_R64_SW BOM_R64_NW BOM_ROCI BOM_POCI BOM_EYE BOM_POS_METHOD BOM_PRES_METHOD NADI_LAT NADI_LON NADI_CAT NADI_WIND NADI_PRES WELLINGTON_LAT WELLINGTON_LON WELLINGTON_WIND WELLINGTON_PRES DS824_LAT DS824_LON DS824_STAGE DS824_WIND DS824_PRES TD9636_LAT TD9636_LON TD9636_STAGE TD9636_WIND TD9636_PRES TD9635_LAT TD9635_LON TD9635_WIND TD9635_PRES TD9635_ROCI NEUMANN_LAT NEUMANN_LON NEUMANN_CLASS NEUMANN_WIND NEUMANN_PRES MLC_LAT MLC_LON MLC_CLASS MLC_WIND MLC_PRES USA_GUST BOM_GUST BOM_GUST_PER REUNION_GUST REUNION_GUST_PER USA_SEAHGT USA_SEARAD_NE USA_SEARAD_SE USA_SEARAD_SW USA_SEARAD_NW STORM_SPEED STORM_DIR
1886160N19128 1886 12 WP MM NOT_NAMED 1886-06-08 16:00:00 NR 18.5000 127.700 main 569 559 __________O___ -1 18.5000 127.700 7 2 280
1886160N19128 1886 12 WP MM NOT_NAMED 1886-06-08 18:00:00 NR 18.5133 127.614 main 559 548 __________P___ -1 18.5133 127.614 7 3 279
1886160N19128 1886 12 WP MM NOT_NAMED 1886-06-08 21:00:00 NR 18.5346 127.473 main 548 527 __________P___ -1 18.5346 127.473 7 3 279
1886160N19128 1886 12 WP MM NOT_NAMED 1886-06-09 00:00:00 NR 18.5591 127.302 main 527 506 __________P___ -1 18.5591 127.302 7 4 278
1886160N19128 1886 12 WP MM NOT_NAMED 1886-06-09 03:00:00 NR 18.5887 127.086 main 506 496 __________P___ -1 18.5887 127.086 7 4 278
1886160N19128 1886 12 WP MM NOT_NAMED 1886-06-09 04:00:00 NR 18.6000 127.000 main 496 475 __________O___ -1 18.6000 127.000 7 5 278
1886160N19128 1886 12 WP MM NOT_NAMED 1886-06-09 06:00:00 NR 18.6251 126.807 main 475 444 __________P___ -1 18.6251 126.807 7 6 278
1886160N19128 1886 12 WP MM NOT_NAMED 1886-06-09 09:00:00 NR 18.6690 126.472 main 444 402 __________P___ -1 18.6690 126.472 7 7 278
1886160N19128 1886 12 WP MM NOT_NAMED 1886-06-09 12:00:00 NR 18.7202 126.105 main 402 361 __________P___ -1 18.7202 126.105 7 7 279
1886160N19128 1886 12 WP MM NOT_NAMED 1886-06-09 15:00:00 NR 18.7788 125.725 main 361 350 __________P___ -1 18.7788 125.725 7 7 279
1886160N19128 1886 12 WP MM NOT_NAMED 1886-06-09 16:00:00 NR 18.8000 125.600 main 350 329 __________O___ -1 18.8000 125.600 7 6 282
1886160N19128 1886 12 WP MM NOT_NAMED 1886-06-09 18:00:00 NR 18.8463 125.393 main 329 300 __________P___ -1 18.8463 125.393 7 6 284
1886160N19128 1886 12 WP MM NOT_NAMED 1886-06-09 21:00:00 NR 18.9224 125.083 main 300 261 __________P___ -1 18.9224 125.083 7 6 284
1886160N19128 1886 12 WP MM NOT_NAMED 1886-06-10 00:00:00 NR 19.0012 124.746 main 261 234 __________P___ -1 19.0012 124.746 7 7 283
1886160N19128 1886 12 WP MM NOT_NAMED 1886-06-10 03:00:00 NR 19.0767 124.350 main 234 214 __________P___ -1 19.0767 124.350 7 8 281
1886160N19128 1886 12 WP MM NOT_NAMED 1886-06-10 04:00:00 NR 19.1000 124.200 main 214 185 __________O___ -1 19.1000 124.200 7 9 278
1886160N19128 1886 12 WP MM NOT_NAMED 1886-06-10 06:00:00 NR 19.1446 123.857 main 185 138 __________P___ -1 19.1446 123.857 7 11 277
1886160N19128 1886 12 WP MM NOT_NAMED 1886-06-10 09:00:00 NR 19.2050 123.280 main 138 103 __________P___ -1 19.2050 123.280 7 11 276
1886160N19128 1886 12 WP MM NOT_NAMED 1886-06-10 12:00:00 NR 19.2549 122.654 main 109 100 __________P___ -1 19.2549 122.654 7 12 274
1886160N19128 1886 12 WP MM NOT_NAMED 1886-06-10 15:00:00 NR 19.2913 122.012 main 101 98 __________P___ -1 19.2913 122.012 7 12 273
1886160N19128 1886 12 WP MM NOT_NAMED 1886-06-10 16:00:00 NR 19.3000 121.800 main 98 89 __________O___ -1 19.3000 121.800 7 11 273
1886160N19128 1886 12 WP MM NOT_NAMED 1886-06-10 18:00:00 NR 19.3212 121.411 main 89 78 __________P___ -1 19.3212 121.411 7 11 273
1886160N19128 1886 12 WP MM NOT_NAMED 1886-06-10 21:00:00 NR 19.3410 120.827 main 78 78 __________P___ -1 19.3410 120.827 7 11 271
1886160N19128 1886 12 WP MM NOT_NAMED 1886-06-11 00:00:00 NR 19.3412 120.232 main 100 100 __________P___ -1 19.3412 120.232 7 11 269
1886160N19128 1886 12 WP MM NOT_NAMED 1886-06-11 03:00:00 NR 19.3154 119.614 main 145 145 __________P___ -1 19.3154 119.614 7 12 267
1886160N19128 1886 12 WP MM NOT_NAMED 1886-06-11 04:00:00 NR 19.3000 119.400 main 161 161 __________O___ -1 19.3000 119.400 7 12 265
1886160N19128 1886 12 WP MM NOT_NAMED 1886-06-11 06:00:00 NR 19.2585 118.959 main 196 205 __________P___ -1 19.2585 118.959 7 13 263
1886160N19128 1886 12 WP MM NOT_NAMED 1886-06-11 09:00:00 NR 19.1713 118.271 main 258 268 __________P___ -1 19.1713 118.271 7 13 262
1886160N19128 1886 12 WP MM NOT_NAMED 1886-06-11 12:00:00 NR 19.0624 117.563 main 325 331 __________P___ -1 19.0624 117.563 7 14 260
1886160N19128 1886 12 WP MM NOT_NAMED 1886-06-11 15:00:00 NR 18.9414 116.842 main 397 397 __________P___ -1 18.9414 116.842 7 14 260
1886160N19128 1886 12 WP MM NOT_NAMED 1886-06-11 16:00:00 NR 18.9000 116.600 main 416 416 __________O___ -1 18.9000 116.600 7 15 261
1886160N19128 1886 12 WP MM NOT_NAMED 1886-06-11 18:00:00 NR 18.8203 116.075 main 432 414 __________P___ -1 18.8203 116.075 7 15 261
1886160N19128 1886 12 WP MM NOT_NAMED 1886-06-11 21:00:00 NR 18.6944 115.280 main 415 384 __________P___ -1 18.6944 115.280 7 15 260
1886160N19128 1886 12 WP MM NOT_NAMED 1886-06-12 00:00:00 NR 18.5655 114.530 main 384 328 __________P___ -1 18.5655 114.530 7 14 259
1886160N19128 1886 12 WP MM NOT_NAMED 1886-06-12 03:00:00 NR 18.4399 113.882 main 333 314 __________P___ -1 18.4399 113.882 7 12 258
1886160N19128 1886 12 WP MM NOT_NAMED 1886-06-12 04:00:00 NR 18.4000 113.700 main 314 291 __________O___ -1 18.4000 113.700 7 9 256
1886160N19128 1886 12 WP MM NOT_NAMED 1886-06-12 06:00:00 NR 18.3264 113.412 main 291 270 __________P___ -1 18.3264 113.412 7 7 253
1886160N19128 1886 12 WP MM NOT_NAMED 1886-06-12 09:00:00 NR 18.2234 113.093 main 270 253 __________P___ -1 18.2234 113.093 7 6 249
1886160N19128 1886 12 WP MM NOT_NAMED 1886-06-12 12:00:00 NR 18.1264 112.862 main 261 243 __________P___ -1 18.1264 112.862 7 4 245
1886160N19128 1886 12 WP MM NOT_NAMED 1886-06-12 15:00:00 NR 18.0317 112.666 main 248 238 __________P___ -1 18.0317 112.666 7 4 243
1886160N19128 1886 12 WP MM NOT_NAMED 1886-06-12 16:00:00 NR 18.0000 112.600 main 238 229 __________O___ -1 18.0000 112.600 7 4 244
1886160N19128 1886 12 WP MM NOT_NAMED 1886-06-12 18:00:00 NR 17.9356 112.457 main 233 211 __________P___ -1 17.9356 112.457 7 5 246
1886160N19128 1886 12 WP MM NOT_NAMED 1886-06-12 21:00:00 NR 17.8369 112.219 main 211 193 __________P___ -1 17.8369 112.219 7 5 247
1886160N19128 1886 12 WP MM NOT_NAMED 1886-06-13 00:00:00 NR 17.7362 111.960 main 200 176 __________P___ -1 17.7362 111.960 7 5 248
1886160N19128 1886 12 WP MM NOT_NAMED 1886-06-13 03:00:00 NR 17.6342 111.691 main 184 176 __________P___ -1 17.6342 111.691 7 6 248
1886160N19128 1886 12 WP MM NOT_NAMED 1886-06-13 04:00:00 NR 17.6000 111.600 main 176 __________O___ -1 17.6000 111.600 7 6 249

Digital Typhoon Data and Search

About IBTrACS Database

This database is a web-friendly format of International Best Track Archive for Climate Stewardship (IBTrACS), a global best track data archive curated by NOAA dating back to 1842.

Updated: 2021-10-08